Time;durP1;ratioP1;P1;durP2;ratioP2;P2;SDS_P1;SDS_P2;PMS_P1;PMS_P2;Temp;Humidity;BMP_temperature;BMP_pressure;BME280_temperature;BME280_humidity;BME280_pressure;Samples;Min_cycle;Max_cycle;Signal;HPM_P1;HPM_P2
2022/08/23 00:01:31;;;;;;;;;;;;;;;18.94;58.27;100893.91;5020653;28;19920;-75
2022/08/23 00:03:59;;;;;;;;;;;;;;;18.93;57.97;100892.19;5027095;28;19932;-76
2022/08/23 00:06:25;;;;;;;;;;;;;;;18.94;57.74;100892.13;5039973;28;19925;-76
2022/08/23 00:08:51;;;;;;;;;;;;;;;18.92;57.92;100895.78;5033911;28;19921;-76
2022/08/23 00:11:27;;;;;;;;;;;;;;;18.90;57.74;100884.44;5041717;28;19927;-76
2022/08/23 00:13:53;;;;;;;;;;;;;;;18.89;57.80;100882.78;5038280;28;19925;-78
2022/08/23 00:16:19;;;;;;;;;;;;;;;18.89;57.58;100878.38;5041530;28;20381;-78
2022/08/23 00:18:45;;;;;;;;;;;;;;;18.89;57.31;100885.41;5019014;28;20558;-78
2022/08/23 00:21:12;;;;;;;;;;;;;;;18.85;57.04;100889.97;5017653;28;19932;-78
2022/08/23 00:23:37;;;;;;;;;;;;;;;18.84;57.17;100887.44;5022819;28;19932;-78
2022/08/23 00:26:02;;;;;;;;;;;;;;;18.77;56.96;100886.91;5042448;28;19924;-78
2022/08/23 00:28:28;;;;;;;;;;;;;;;18.79;56.60;100892.06;5034198;28;19913;-78
2022/08/23 00:30:53;;;;;;;;;;;;;;;18.78;57.03;100885.13;5034156;28;19978;-78
2022/08/23 00:33:20;;;;;;;;;;;;;;;18.77;56.91;100878.16;5019889;28;19925;-78
2022/08/23 00:35:45;;;;;;;;;;;;;;;18.75;56.80;100882.66;5040289;28;19929;-77
2022/08/23 00:38:10;;;;;;;;;;;;;;;18.74;56.64;100886.22;5035035;28;20294;-77
2022/08/23 00:40:36;;;;;;;;;;;;;;;18.70;56.80;100875.84;5041132;28;19921;-77
2022/08/23 00:48:54;;;;;;;;;;;;;;;18.74;56.03;100875.69;5020833;28;19927;-77
2022/08/23 00:51:22;;;;;;;;;;;;;;;18.71;55.63;100874.06;5037103;28;19950;-78
2022/08/23 00:53:53;;;;;;;;;;;;;;;18.70;56.27;100882.88;5041244;28;19928;-78
2022/08/23 00:56:19;;;;;;;;;;;;;;;18.66;55.90;100884.81;5038554;28;19928;-78
2022/08/23 00:58:45;;;;;;;;;;;;;;;18.68;56.36;100890.03;5045454;28;20000;-78
2022/08/23 01:01:12;;;;;;;;;;;;;;;18.64;56.74;100885.84;5037778;28;20016;-78
2022/08/23 01:03:39;;;;;;;;;;;;;;;18.62;56.70;100887.72;5043170;28;19948;-77
2022/08/23 01:06:04;;;;;;;;;;;;;;;18.64;56.53;100889.31;5022816;28;20408;-77
2022/08/23 01:08:32;;;;;;;;;;;;;;;18.63;56.76;100897.28;5044197;28;19921;-77
2022/08/23 01:11:04;;;;;;;;;;;;;;;18.64;56.51;100904.25;5042773;28;19917;-77
2022/08/23 01:13:36;;;;;;;;;;;;;;;18.66;56.07;100902.38;5043488;28;19932;-77
2022/08/23 01:16:09;;;;;;;;;;;;;;;18.62;56.40;100898.25;5043670;28;19925;-77
2022/08/23 01:18:35;;;;;;;;;;;;;;;18.63;56.29;100898.13;5013759;28;19944;-77
2022/08/23 01:21:15;;;;;;;;;;;;;;;18.57;57.10;100902.91;5028080;28;19959;-77
2022/08/23 01:23:46;;;;;;;;;;;;;;;18.59;57.41;100898.41;5033678;28;19925;-77
2022/08/23 01:26:13;;;;;;;;;;;;;;;18.60;57.09;100898.31;5014679;28;20016;-77
2022/08/23 01:28:39;;;;;;;;;;;;;;;18.55;57.67;100899.47;5020476;28;19987;-77
2022/08/23 01:31:06;;;;;;;;;;;;;;;18.58;57.20;100904.56;5021624;28;19925;-78
2022/08/23 01:33:31;;;;;;;;;;;;;;;18.53;57.59;100899.56;5020155;28;19939;-78
2022/08/23 01:35:57;;;;;;;;;;;;;;;18.52;57.82;100902.25;5015354;28;19936;-78
2022/08/23 01:38:24;;;;;;;;;;;;;;;18.49;57.69;100911.16;5025012;28;19929;-78
2022/08/23 01:40:50;;;;;;;;;;;;;;;18.49;57.79;100915.56;5019013;28;21116;-78
2022/08/23 01:43:18;;;;;;;;;;;;;;;18.50;57.58;100915.50;5045605;28;20031;-78
2022/08/23 01:45:44;;;;;;;;;;;;;;;18.47;57.60;100914.81;5038195;28;19924;-78
2022/08/23 01:48:09;;;;;;;;;;;;;;;18.47;57.36;100914.81;5044602;28;19925;-78
2022/08/23 01:50:35;;;;;;;;;;;;;;;18.48;57.26;100908.63;5018766;28;19921;-78
2022/08/23 01:53:00;;;;;;;;;;;;;;;18.48;57.37;100903.38;5023948;28;19974;-78
2022/08/23 01:55:26;;;;;;;;;;;;;;;18.43;57.53;100911.44;5039982;28;19925;-77
2022/08/23 01:57:53;;;;;;;;;;;;;;;18.41;57.71;100915.09;5041393;28;19947;-77
2022/08/23 02:00:20;;;;;;;;;;;;;;;18.40;57.61;100916.00;5040419;28;19929;-77
2022/08/23 02:02:48;;;;;;;;;;;;;;;18.42;57.67;100916.81;5037608;28;20031;-77
2022/08/23 02:05:14;;;;;;;;;;;;;;;18.40;57.84;100919.50;5038801;28;19971;-77
2022/08/23 02:07:40;;;;;;;;;;;;;;;18.40;57.73;100918.63;5021695;28;20344;-77
2022/08/23 02:10:06;;;;;;;;;;;;;;;18.34;57.82;100919.81;5037978;28;20559;-77
2022/08/23 02:12:32;;;;;;;;;;;;;;;18.32;57.95;100918.19;5040746;28;19927;-77
2022/08/23 02:14:57;;;;;;;;;;;;;;;18.31;58.15;100921.72;5026434;28;20364;-77
2022/08/23 02:17:23;;;;;;;;;;;;;;;18.33;58.13;100918.13;5022854;28;20398;-77
2022/08/23 02:19:48;;;;;;;;;;;;;;;18.32;58.05;100921.66;5019694;28;20019;-77
2022/08/23 02:22:13;;;;;;;;;;;;;;;18.33;57.77;100917.25;5038244;28;20345;-77
2022/08/23 02:24:43;;;;;;;;;;;;;;;18.30;57.82;100920.06;5026114;28;19929;-77
2022/08/23 02:27:09;;;;;;;;;;;;;;;18.31;57.90;100912.06;5021708;28;20452;-77
2022/08/23 02:29:34;;;;;;;;;;;;;;;18.30;57.77;100925.31;5021660;28;19925;-77
2022/08/23 02:32:00;;;;;;;;;;;;;;;18.35;57.43;100916.25;5015768;28;19921;-77
2022/08/23 02:34:26;;;;;;;;;;;;;;;18.31;57.11;100913.84;5022501;28;19921;-77
2022/08/23 02:36:51;;;;;;;;;;;;;;;18.33;56.81;100912.00;5022615;28;19933;-77
2022/08/23 02:39:17;;;;;;;;;;;;;;;18.36;57.06;100915.31;5017801;28;19925;-78
2022/08/23 02:41:42;;;;;;;;;;;;;;;18.35;56.89;100918.88;5028727;28;20362;-77
2022/08/23 02:44:09;;;;;;;;;;;;;;;18.34;56.70;100914.53;5019819;28;19971;-77
2022/08/23 02:46:35;;;;;;;;;;;;;;;18.30;56.42;100914.78;5017664;28;19963;-77
2022/08/23 02:49:00;;;;;;;;;;;;;;;18.25;56.83;100917.63;5025005;28;19929;-77
2022/08/23 02:51:25;;;;;;;;;;;;;;;18.29;56.30;100927.09;5030308;28;20386;-77
2022/08/23 02:53:51;;;;;;;;;;;;;;;18.22;56.42;100928.31;5042870;28;20015;-78
2022/08/23 02:56:16;;;;;;;;;;;;;;;18.22;56.72;100937.97;5041399;28;19925;-78
2022/08/23 02:58:44;;;;;;;;;;;;;;;18.26;56.51;100924.59;5036872;28;19921;-78
2022/08/23 03:01:17;;;;;;;;;;;;;;;18.17;57.00;100940.84;5037922;28;19935;-78
2022/08/23 03:03:42;;;;;;;;;;;;;;;18.18;56.75;100944.31;5040816;28;20023;-78
2022/08/23 03:06:07;;;;;;;;;;;;;;;18.12;57.16;100941.06;5037390;28;20067;-78
2022/08/23 03:08:33;;;;;;;;;;;;;;;18.13;57.35;100944.53;5047084;28;19963;-77
2022/08/23 03:10:58;;;;;;;;;;;;;;;18.10;57.61;100942.06;5040015;28;19928;-77
2022/08/23 03:13:23;;;;;;;;;;;;;;;18.14;57.75;100947.09;5021709;28;19996;-77
2022/08/23 03:15:48;;;;;;;;;;;;;;;18.20;57.82;100950.34;5023418;28;20385;-77
2022/08/23 03:18:15;;;;;;;;;;;;;;;18.12;58.11;100945.50;5017468;28;19929;-77
2022/08/23 03:20:40;;;;;;;;;;;;;;;18.10;58.18;100949.94;5029803;28;19952;-77
2022/08/23 03:23:06;;;;;;;;;;;;;;;18.04;58.61;100952.88;5041024;28;20405;-77
2022/08/23 03:25:32;;;;;;;;;;;;;;;18.09;58.39;100943.84;5027585;28;20003;-77
2022/08/23 03:27:57;;;;;;;;;;;;;;;18.04;58.36;100935.31;5025522;28;19929;-77
2022/08/23 03:30:22;;;;;;;;;;;;;;;17.98;58.62;100938.25;5042518;28;19928;-77
2022/08/23 03:32:48;;;;;;;;;;;;;;;17.98;58.74;100940.88;5026250;28;19925;-77
2022/08/23 03:35:13;;;;;;;;;;;;;;;18.01;58.62;100938.09;5015604;28;20366;-77
2022/08/23 03:37:38;;;;;;;;;;;;;;;18.05;58.61;100939.66;5020726;28;20444;-77
2022/08/23 03:40:06;;;;;;;;;;;;;;;18.00;58.57;100940.81;5020341;28;20012;-77
2022/08/23 03:42:32;;;;;;;;;;;;;;;18.01;58.28;100948.63;5019609;28;19964;-77
2022/08/23 03:44:57;;;;;;;;;;;;;;;18.02;58.43;100944.22;5010135;28;19945;-77
2022/08/23 03:47:22;;;;;;;;;;;;;;;17.94;58.59;100951.63;5039084;28;19972;-77
2022/08/23 03:49:48;;;;;;;;;;;;;;;17.93;58.61;100961.28;5037407;28;19940;-77
2022/08/23 03:52:13;;;;;;;;;;;;;;;17.92;58.32;100958.72;5015670;28;20438;-78
2022/08/23 03:54:38;;;;;;;;;;;;;;;17.92;58.15;100958.72;5018112;28;19964;-78
2022/08/23 03:57:06;;;;;;;;;;;;;;;17.81;58.81;100956.63;5012711;28;19932;-78
2022/08/23 03:59:32;;;;;;;;;;;;;;;17.85;58.74;100957.34;5016967;28;20374;-78
2022/08/23 04:01:58;;;;;;;;;;;;;;;17.86;59.05;100964.28;4999525;28;19952;-77
2022/08/23 04:04:24;;;;;;;;;;;;;;;17.81;59.42;100977.66;5018438;28;20353;-77
2022/08/23 04:06:49;;;;;;;;;;;;;;;17.85;58.95;100984.47;5018092;28;19948;-77
2022/08/23 04:09:15;;;;;;;;;;;;;;;17.83;59.14;100978.41;5018339;28;19928;-78
2022/08/23 04:11:41;;;;;;;;;;;;;;;17.83;59.28;100983.66;5016291;28;19999;-78
2022/08/23 04:14:06;;;;;;;;;;;;;;;17.83;59.48;100990.72;5022425;28;19932;-78
2022/08/23 04:16:36;;;;;;;;;;;;;;;17.86;59.40;100987.94;5019319;28;19925;-78
2022/08/23 04:19:05;;;;;;;;;;;;;;;17.79;59.52;100990.03;5022134;28;19925;-78
2022/08/23 04:21:30;;;;;;;;;;;;;;;17.77;59.62;100986.59;5023007;28;19971;-78
2022/08/23 04:23:56;;;;;;;;;;;;;;;17.85;59.39;100999.38;5022240;28;19925;-78
2022/08/23 04:26:22;;;;;;;;;;;;;;;17.74;59.54;101001.69;5026355;28;19953;-77
2022/08/23 04:28:47;;;;;;;;;;;;;;;17.73;59.25;100999.97;5028262;28;20318;-78
2022/08/23 04:31:13;;;;;;;;;;;;;;;17.74;58.90;100997.25;5029438;28;20435;-78
2022/08/23 04:33:38;;;;;;;;;;;;;;;17.72;58.95;101003.50;5022990;28;19935;-77
2022/08/23 04:36:03;;;;;;;;;;;;;;;17.71;58.89;101000.00;5033641;28;20008;-77
2022/08/23 04:38:29;;;;;;;;;;;;;;;17.71;58.65;101001.81;5031665;28;20386;-77
2022/08/23 04:43:39;;;;;;;;;;;;;;;17.67;58.89;101008.13;5049914;28;19957;-78
2022/08/23 04:46:04;;;;;;;;;;;;;;;17.68;58.93;101018.53;5025828;28;19925;-78
2022/08/23 04:48:29;;;;;;;;;;;;;;;17.66;59.07;101012.53;5046690;28;19944;-77
2022/08/23 04:50:56;;;;;;;;;;;;;;;17.70;59.14;101024.59;5038261;28;19952;-77
2022/08/23 04:53:22;;;;;;;;;;;;;;;17.72;58.70;101024.53;5029693;28;19956;-78
2022/08/23 04:55:48;;;;;;;;;;;;;;;17.70;59.16;101026.38;5009083;28;19925;-78
2022/08/23 04:58:13;;;;;;;;;;;;;;;17.65;59.46;101029.19;5027132;28;19925;-78
2022/08/23 05:00:38;;;;;;;;;;;;;;;17.65;59.22;101026.56;5028378;28;19999;-78
2022/08/23 05:03:04;;;;;;;;;;;;;;;17.64;59.52;101024.03;5031869;28;20327;-78
2022/08/23 05:05:29;;;;;;;;;;;;;;;17.71;59.30;101031.53;5034520;28;20378;-78
2022/08/23 05:07:54;;;;;;;;;;;;;;;17.77;59.08;101041.78;5046357;28;19923;-77
2022/08/23 05:10:20;;;;;;;;;;;;;;;17.79;59.01;101037.31;5028802;28;20004;-77
2022/08/23 05:12:46;;;;;;;;;;;;;;;17.74;59.52;101044.53;5029624;28;19933;-77
2022/08/23 05:15:12;;;;;;;;;;;;;;;17.76;59.58;101050.59;5029289;28;19925;-77
2022/08/23 05:17:38;;;;;;;;;;;;;;;17.79;59.76;101046.97;5007518;28;19927;-77
2022/08/23 05:20:05;;;;;;;;;;;;;;;17.85;59.95;101044.91;5031236;28;19960;-77
2022/08/23 05:22:33;;;;;;;;;;;;;;;17.81;59.98;101053.84;5044514;28;20444;-77
2022/08/23 05:24:59;;;;;;;;;;;;;;;17.87;60.39;101055.34;5024093;28;19967;-77
2022/08/23 05:27:24;;;;;;;;;;;;;;;17.87;60.41;101057.97;5006118;28;19964;-77
2022/08/23 05:29:53;;;;;;;;;;;;;;;17.82;61.03;101063.44;5041598;28;19927;-77
2022/08/23 05:32:18;;;;;;;;;;;;;;;17.85;60.68;101067.72;5040737;28;19963;-77
2022/08/23 05:34:43;;;;;;;;;;;;;;;17.88;60.42;101059.69;5046400;28;19959;-77
2022/08/23 05:37:09;;;;;;;;;;;;;;;17.87;60.37;101064.09;5048467;28;19932;-77
2022/08/23 05:39:34;;;;;;;;;;;;;;;17.92;60.06;101058.59;5024032;28;19959;-77
2022/08/23 05:41:59;;;;;;;;;;;;;;;17.98;60.50;101064.44;5031107;28;19950;-77
2022/08/23 05:44:25;;;;;;;;;;;;;;;17.97;60.40;101061.88;5039859;28;19921;-78
2022/08/23 05:46:50;;;;;;;;;;;;;;;17.99;60.68;101063.50;5035089;28;19929;-77
2022/08/23 05:49:15;;;;;;;;;;;;;;;18.00;60.36;101072.25;5042288;28;20353;-78
2022/08/23 05:51:41;;;;;;;;;;;;;;;17.97;60.94;101075.88;5025931;28;20021;-78
2022/08/23 05:54:08;;;;;;;;;;;;;;;17.99;60.76;101074.03;5049179;28;20425;-79
2022/08/23 05:56:34;;;;;;;;;;;;;;;17.99;60.70;101076.66;5039486;28;20397;-78
2022/08/23 05:59:01;;;;;;;;;;;;;;;18.01;61.01;101077.44;5039477;28;19923;-78
2022/08/23 06:01:28;;;;;;;;;;;;;;;18.06;60.70;101085.97;5037790;28;19939;-78
2022/08/23 06:03:53;;;;;;;;;;;;;;;18.09;61.19;101085.81;5042206;28;19924;-78
2022/08/23 06:06:19;;;;;;;;;;;;;;;18.11;61.24;101091.84;5040463;28;19931;-78
2022/08/23 06:08:47;;;;;;;;;;;;;;;18.12;61.48;101093.53;5042901;28;19931;-77
2022/08/23 06:11:14;;;;;;;;;;;;;;;18.19;61.53;101096.75;5044766;28;19928;-78
2022/08/23 06:13:41;;;;;;;;;;;;;;;18.23;60.92;101090.44;5043871;28;20015;-78
2022/08/23 06:16:07;;;;;;;;;;;;;;;18.29;60.51;101094.53;5042893;28;19939;-78
2022/08/23 06:18:32;;;;;;;;;;;;;;;18.26;59.30;101097.31;5041522;28;19925;-77
2022/08/23 06:20:59;;;;;;;;;;;;;;;18.29;59.73;101089.28;5042176;28;20283;-77
2022/08/23 06:23:25;;;;;;;;;;;;;;;18.31;59.03;101090.03;5041651;28;20432;-77
2022/08/23 06:25:50;;;;;;;;;;;;;;;18.31;59.01;101090.03;5050708;28;19924;-78
2022/08/23 06:28:16;;;;;;;;;;;;;;;18.35;59.39;101094.25;5056042;28;19923;-77
2022/08/23 06:30:41;;;;;;;;;;;;;;;18.36;59.13;101102.03;5052464;28;19927;-78
2022/08/23 06:33:07;;;;;;;;;;;;;;;18.34;58.62;101098.66;5049094;28;20465;-77
2022/08/23 06:35:32;;;;;;;;;;;;;;;18.37;58.27;101097.66;5041152;28;19932;-77
2022/08/23 06:37:57;;;;;;;;;;;;;;;18.39;58.42;101095.81;5040163;28;19960;-77
2022/08/23 06:40:24;;;;;;;;;;;;;;;18.43;57.86;101100.84;5041381;28;20021;-77
2022/08/23 06:42:49;;;;;;;;;;;;;;;18.44;58.41;101099.06;5041569;28;19947;-77
2022/08/23 06:45:14;;;;;;;;;;;;;;;18.46;57.27;101095.47;5042424;28;19925;-77
2022/08/23 06:47:40;;;;;;;;;;;;;;;18.45;57.80;101103.41;5042644;28;20445;-77
2022/08/23 06:50:05;;;;;;;;;;;;;;;18.48;57.57;101095.41;5036937;28;19925;-78
2022/08/23 06:52:31;;;;;;;;;;;;;;;18.49;58.75;101104.97;5025356;28;19921;-78
2022/08/23 06:54:56;;;;;;;;;;;;;;;18.44;58.02;101099.94;5018338;28;20015;-77
2022/08/23 06:57:21;;;;;;;;;;;;;;;18.47;58.26;101101.59;5045391;28;20062;-77
2022/08/23 06:59:48;;;;;;;;;;;;;;;18.49;58.71;101105.84;5040195;28;19932;-77
2022/08/23 07:02:14;;;;;;;;;;;;;;;18.50;58.05;101110.19;5042544;28;19939;-78
2022/08/23 07:04:39;;;;;;;;;;;;;;;18.48;57.55;101109.38;5040628;28;19928;-78
2022/08/23 07:07:05;;;;;;;;;;;;;;;18.51;57.93;101105.78;5036280;28;19924;-77
2022/08/23 07:09:31;;;;;;;;;;;;;;;18.55;57.79;101112.56;5041766;28;19920;-77
2022/08/23 07:11:56;;;;;;;;;;;;;;;18.54;57.71;101110.91;5038367;28;20508;-77
2022/08/23 07:14:22;;;;;;;;;;;;;;;18.58;56.71;101110.66;5028184;28;20313;-77
2022/08/23 07:16:51;;;;;;;;;;;;;;;18.60;57.03;101111.44;5036310;28;19917;-77
2022/08/23 07:19:18;;;;;;;;;;;;;;;18.63;57.30;101121.81;5042431;28;20341;-77
2022/08/23 07:21:44;;;;;;;;;;;;;;;18.63;57.45;101116.53;5034223;28;19921;-77
2022/08/23 07:24:09;;;;;;;;;;;;;;;18.63;56.80;101120.94;5037051;28;19971;-78
2022/08/23 07:26:38;;;;;;;;;;;;;;;18.66;56.99;101120.78;5036870;28;19925;-77
2022/08/23 07:29:04;;;;;;;;;;;;;;;18.66;56.82;101121.66;5038039;28;21733;-78
2022/08/23 07:31:31;;;;;;;;;;;;;;;18.74;56.72;101121.28;5039038;28;20374;-78
2022/08/23 07:33:57;;;;;;;;;;;;;;;18.73;56.93;101121.34;5024577;28;19932;-78
2022/08/23 07:36:25;;;;;;;;;;;;;;;18.71;56.73;101129.34;5043609;28;20600;-78
2022/08/23 07:38:51;;;;;;;;;;;;;;;18.73;56.98;101124.84;5028487;28;19931;-78
2022/08/23 07:41:17;;;;;;;;;;;;;;;18.76;57.19;101131.72;5038516;28;19925;-78
2022/08/23 07:43:43;;;;;;;;;;;;;;;18.74;56.93;101129.19;5036984;28;19954;-78
2022/08/23 07:46:09;;;;;;;;;;;;;;;18.77;56.31;101131.69;5039959;28;20063;-78
2022/08/23 07:48:35;;;;;;;;;;;;;;;18.76;56.90;101129.97;5024364;28;19966;-78
2022/08/23 07:51:01;;;;;;;;;;;;;;;18.82;56.57;101127.03;5040580;28;19933;-78
2022/08/23 07:53:27;;;;;;;;;;;;;;;18.84;56.02;101122.53;5042466;28;20094;-78
2022/08/23 07:55:53;;;;;;;;;;;;;;;18.80;56.97;101128.03;5028772;28;20448;-77
2022/08/23 07:58:20;;;;;;;;;;;;;;;18.81;56.79;101130.56;5027457;28;19940;-78
2022/08/23 08:00:46;;;;;;;;;;;;;;;18.86;57.02;101131.22;5024136;28;19925;-78
2022/08/23 08:03:12;;;;;;;;;;;;;;;18.89;56.68;101135.47;5029262;28;19929;-78
2022/08/23 08:05:37;;;;;;;;;;;;;;;18.93;56.50;101129.13;5025824;28;20406;-78
2022/08/23 08:08:03;;;;;;;;;;;;;;;18.93;56.37;101129.13;5023118;28;19929;-78
2022/08/23 08:10:28;;;;;;;;;;;;;;;18.97;56.03;101128.91;5036251;28;19921;-78
2022/08/23 08:12:54;;;;;;;;;;;;;;;18.97;55.65;101130.69;5038037;28;19929;-78
2022/08/23 08:15:20;;;;;;;;;;;;;;;18.96;55.74;101128.97;5033748;28;19951;-78
2022/08/23 08:17:46;;;;;;;;;;;;;;;18.98;55.73;101135.03;5041498;28;20706;-78
2022/08/23 08:20:12;;;;;;;;;;;;;;;19.04;55.33;101129.44;5037832;28;20396;-78
2022/08/23 08:22:37;;;;;;;;;;;;;;;19.03;55.74;101130.38;5042036;28;19909;-78
2022/08/23 08:25:03;;;;;;;;;;;;;;;19.03;55.34;101136.50;5042114;28;20024;-78
2022/08/23 08:27:28;;;;;;;;;;;;;;;19.05;56.44;101129.34;5041174;28;20015;-76
2022/08/23 08:29:54;;;;;;;;;;;;;;;19.06;56.42;101140.75;5043087;28;19925;-78
2022/08/23 08:32:22;;;;;;;;;;;;;;;19.07;56.49;101131.94;5028936;28;19925;-78
2022/08/23 08:34:47;;;;;;;;;;;;;;;19.07;56.53;101142.47;5041348;28;19993;-78
2022/08/23 08:37:12;;;;;;;;;;;;;;;19.09;56.72;101143.22;5041649;28;20390;-78
2022/08/23 08:39:44;;;;;;;;;;;;;;;19.10;56.70;101134.41;5040416;28;19929;-78
2022/08/23 08:42:21;;;;;;;;;;;;;;;19.18;54.24;101138.34;5018147;28;20729;-78
2022/08/23 08:44:48;;;;;;;;;;;;;;;19.17;54.85;101134.00;5031847;28;19932;-78
2022/08/23 08:47:29;;;;;;;;;;;;;;;19.17;54.70;101134.00;5034705;28;19939;-78
2022/08/23 08:50:08;;;;;;;;;;;;;;;19.19;54.59;101133.94;5032451;28;19923;-78
2022/08/23 08:52:37;;;;;;;;;;;;;;;19.22;54.49;101131.16;5037903;28;19927;-78
2022/08/23 08:55:06;;;;;;;;;;;;;;;19.21;54.76;101130.31;5038020;28;20020;-78
2022/08/23 08:57:40;;;;;;;;;;;;;;;19.17;56.68;101134.00;5037228;28;20374;-78
2022/08/23 09:00:10;;;;;;;;;;;;;;;19.16;56.41;101132.28;5035780;28;19928;-78
2022/08/23 09:02:36;;;;;;;;;;;;;;;19.16;56.75;101134.94;5036131;28;19948;-78
2022/08/23 09:05:05;;;;;;;;;;;;;;;19.16;56.63;101137.56;5045738;28;19920;-78
2022/08/23 09:07:38;;;;;;;;;;;;;;;19.21;61.17;101140.84;5046609;28;20441;-78
2022/08/23 09:10:13;;;;;;;;;;;;;;;19.16;57.11;101137.56;5041103;28;20300;-78
2022/08/23 09:13:04;;;;;;;;;;;;;;;19.17;58.00;101134.00;5045733;28;19929;-78
2022/08/23 09:15:30;;;;;;;;;;;;;;;19.16;57.65;101128.84;5018362;28;20012;-78
2022/08/23 09:18:07;;;;;;;;;;;;;;;19.18;57.76;101133.09;5039841;28;20004;-78
2022/08/23 09:20:33;;;;;;;;;;;;;;;19.21;56.79;101134.72;5045833;28;20116;-78
2022/08/23 09:23:20;;;;;;;;;;;;;;;19.33;54.95;101130.63;5043939;28;19944;-78
2022/08/23 09:25:59;;;;;;;;;;;;;;;19.37;55.30;101126.91;5041902;28;19917;-78
2022/08/23 09:28:26;;;;;;;;;;;;;;;19.36;55.13;101135.75;5048570;28;19983;-78
2022/08/23 09:30:53;;;;;;;;;;;;;;;19.33;56.08;101138.53;5041611;28;19968;-78
2022/08/23 09:33:35;;;;;;;;;;;;;;;19.38;54.67;101128.59;5042736;28;22232;-78
2022/08/23 09:36:03;;;;;;;;;;;;;;;19.46;53.81;101121.16;5045286;28;19929;-78
2022/08/23 09:38:28;;;;;;;;;;;;;;;19.60;53.53;101116.88;5057179;28;19920;-78
2022/08/23 09:40:54;;;;;;;;;;;;;;;19.46;55.51;101123.81;5042775;28;19931;-78
2022/08/23 09:43:22;;;;;;;;;;;;;;;19.44;54.84;101115.09;5044561;28;19921;-78
2022/08/23 09:45:47;;;;;;;;;;;;;;;19.45;54.07;101124.72;5044611;28;20395;-78
2022/08/23 09:48:14;;;;;;;;;;;;;;;19.42;54.55;101119.63;5037115;28;20000;-78
2022/08/23 09:50:48;;;;;;;;;;;;;;;19.32;60.54;101135.03;5040475;28;19928;-78
2022/08/23 09:53:14;;;;;;;;;;;;;;;19.29;58.73;101122.03;5042962;28;19924;-79
2022/08/23 09:55:50;;;;;;;;;;;;;;;19.40;57.41;101118.84;5039120;28;19932;-78
2022/08/23 09:58:36;;;;;;;;;;;;;;;19.51;54.94;101116.50;5042448;28;19925;-78
2022/08/23 10:01:33;;;;;;;;;;;;;;;19.58;54.23;101105.53;5028845;28;19929;-78
2022/08/23 10:04:05;;;;;;;;;;;;;;;19.44;56.04;101109.84;5005391;28;19925;-78
2022/08/23 10:06:32;;;;;;;;;;;;;;;19.52;54.18;101105.88;5037128;28;19936;-78
2022/08/23 10:12:01;;;;;;;;;;;;;;;19.38;58.39;101107.53;5039182;28;19935;-78
2022/08/23 10:14:27;;;;;;;;;;;;;;;19.36;56.79;101104.13;5018998;28;20349;-78
2022/08/23 10:17:13;;;;;;;;;;;;;;;19.62;53.63;101093.91;5001335;28;19932;-78
2022/08/23 10:19:39;;;;;;;;;;;;;;;19.71;52.78;101097.84;5019495;28;20409;-78
2022/08/23 10:22:07;;;;;;;;;;;;;;;19.67;52.32;101104.19;5026110;28;19928;-78
2022/08/23 10:24:51;;;;;;;;;;;;;;;19.84;55.62;101095.41;5004070;28;20027;-78
2022/08/23 10:30:27;;;;;;;;;;;;;;;20.09;49.23;101101.91;5013407;28;19935;-78
2022/08/23 10:32:55;;;;;;;;;;;;;;;19.78;50.90;101104.50;5021196;28;19953;-78
2022/08/23 10:35:28;;;;;;;;;;;;;;;19.84;50.30;101098.91;5016163;28;19932;-78
2022/08/23 10:37:59;;;;;;;;;;;;;;;19.76;50.51;101098.44;5020253;28;19917;-78
2022/08/23 10:40:27;;;;;;;;;;;;;;;19.82;51.19;101089.38;5018840;28;19913;-78
2022/08/23 10:42:55;;;;;;;;;;;;;;;19.59;58.41;101103.75;5019615;28;19925;-78
2022/08/23 10:45:26;;;;;;;;;;;;;;;19.76;52.67;101093.16;5026136;28;20024;-78
2022/08/23 10:47:51;;;;;;;;;;;;;;;19.66;57.40;101087.56;5019881;28;20713;-78
2022/08/23 10:50:18;;;;;;;;;;;;;;;19.91;51.33;101081.78;5020289;28;19932;-78
2022/08/23 10:52:50;;;;;;;;;;;;;;;19.73;53.12;101082.78;5003741;28;19914;-78
2022/08/23 10:55:34;;;;;;;;;;;;;;;19.58;61.88;101092.38;5015224;28;19921;-76
2022/08/23 10:58:02;;;;;;;;;;;;;;;19.57;62.53;101092.47;5020009;28;20492;-76
2022/08/23 11:00:28;;;;;;;;;;;;;;;19.80;52.56;101079.75;5017634;28;19921;-77
2022/08/23 11:02:53;;;;;;;;;;;;;;;20.12;50.92;101072.72;5024972;28;19925;-78
2022/08/23 11:05:30;;;;;;;;;;;;;;;19.91;51.56;101073.03;5025103;28;19925;-78
2022/08/23 11:08:04;;;;;;;;;;;;;;;19.81;56.72;101077.97;5017311;28;19913;-78
2022/08/23 11:10:32;;;;;;;;;;;;;;;19.74;53.24;101069.53;5016618;28;19921;-78
2022/08/23 11:12:59;;;;;;;;;;;;;;;19.92;51.62;101061.56;5022200;28;19966;-78
2022/08/23 11:15:48;;;;;;;;;;;;;;;20.24;49.84;101060.66;5040149;28;20203;-78
2022/08/23 11:18:28;;;;;;;;;;;;;;;20.04;50.31;101072.28;5032688;28;20377;-78
2022/08/23 11:21:01;;;;;;;;;;;;;;;20.01;51.88;101071.59;5026605;28;20203;-78
2022/08/23 11:23:37;;;;;;;;;;;;;;;19.98;52.01;101067.34;5019962;28;19971;-79
2022/08/23 11:26:04;;;;;;;;;;;;;;;19.95;51.60;101066.66;5022405;28;20294;-76
2022/08/23 11:28:40;;;;;;;;;;;;;;;19.90;51.55;101066.94;5045385;28;20121;-76
2022/08/23 11:31:30;;;;;;;;;;;;;;;19.82;55.69;101070.94;5043243;28;19928;-76
2022/08/23 11:34:02;;;;;;;;;;;;;;;20.02;51.68;101058.34;5038639;28;19947;-76
2022/08/23 11:36:28;;;;;;;;;;;;;;;19.86;56.51;101068.03;5034463;28;20050;-78
2022/08/23 11:38:54;;;;;;;;;;;;;;;19.70;56.87;101062.72;5045963;28;19924;-78
2022/08/23 11:41:22;;;;;;;;;;;;;;;19.92;52.72;101051.00;5045392;28;20567;-78
2022/08/23 11:43:54;;;;;;;;;;;;;;;19.90;58.25;101061.66;5041472;28;19921;-78
2022/08/23 11:46:22;;;;;;;;;;;;;;;19.71;60.64;101067.06;5021674;28;20297;-79
2022/08/23 11:49:07;;;;;;;;;;;;;;;19.70;59.45;101061.88;5016800;28;19929;-78
2022/08/23 11:51:39;;;;;;;;;;;;;;;19.81;54.54;101051.63;4981855;28;20036;-78
2022/08/23 11:54:22;;;;;;;;;;;;;;;19.82;59.38;101057.75;5023804;28;19929;-78
2022/08/23 11:56:54;;;;;;;;;;;;;;;20.10;52.37;101039.47;5014310;28;20353;-78
2022/08/23 11:59:33;;;;;;;;;;;;;;;20.48;48.67;101042.56;5020325;28;19972;-78
2022/08/23 12:02:18;;;;;;;;;;;;;;;19.98;58.53;101046.25;5017822;28;20055;-78
2022/08/23 12:04:49;;;;;;;;;;;;;;;20.38;49.76;101031.72;5014509;28;19963;-78
2022/08/23 12:07:34;;;;;;;;;;;;;;;19.97;58.49;101036.63;5001322;28;19921;-78
2022/08/23 12:09:59;;;;;;;;;;;;;;;20.38;53.20;101036.13;5030793;28;19932;-78
2022/08/23 12:12:29;;;;;;;;;;;;;;;19.88;61.06;101044.22;5021100;28;20177;-78
2022/08/23 12:14:56;;;;;;;;;;;;;;;19.84;60.63;101040.91;5016126;28;20464;-78
2022/08/23 12:17:24;;;;;;;;;;;;;;;19.83;59.94;101033.91;5020398;28;20386;-78
2022/08/23 12:19:52;;;;;;;;;;;;;;;19.80;61.52;101028.81;5017199;28;20071;-78
2022/08/23 12:22:20;;;;;;;;;;;;;;;19.92;55.04;101027.28;5044245;28;19948;-78
2022/08/23 12:24:56;;;;;;;;;;;;;;;19.89;59.73;101027.44;5024948;28;19925;-78
2022/08/23 12:27:33;;;;;;;;;;;;;;;19.90;58.71;101019.47;5020286;28;19948;-78
2022/08/23 12:30:05;;;;;;;;;;;;;;;20.22;50.92;101009.78;5026687;28;19929;-78
2022/08/23 12:32:43;;;;;;;;;;;;;;;20.08;51.62;101009.72;5008204;28;19925;-78
2022/08/23 12:35:26;;;;;;;;;;;;;;;19.99;58.65;101031.28;5031566;28;19925;-79
2022/08/23 12:37:55;;;;;;;;;;;;;;;19.93;60.84;101018.44;5042396;28;19924;-78
2022/08/23 12:40:37;;;;;;;;;;;;;;;19.79;61.68;101020.03;5040613;28;19920;-78
2022/08/23 12:43:06;;;;;;;;;;;;;;;19.78;62.24;101025.41;5041972;28;19986;-78
2022/08/23 12:45:42;;;;;;;;;;;;;;;19.73;62.63;101017.75;5044549;28;19940;-78
2022/08/23 12:48:09;;;;;;;;;;;;;;;19.78;62.65;101018.38;5040862;28;19929;-78
2022/08/23 12:50:39;;;;;;;;;;;;;;;19.78;62.62;101018.38;5029730;28;19921;-78
2022/08/23 12:53:12;;;;;;;;;;;;;;;19.78;62.90;101022.78;5027759;28;19924;-78
2022/08/23 12:55:43;;;;;;;;;;;;;;;19.79;62.29;101022.69;5050931;28;19921;-78